sensor_id;sensor_type;location;lat;lon;timestamp;P1;durP1;ratioP1;P2;durP2;ratioP2
10851;SDS011;5479;52.046;6.314;2023-03-12T00:02:25;6.83;;;4.87;;
10851;SDS011;5479;52.046;6.314;2023-03-12T00:04:52;9.30;;;5.03;;
10851;SDS011;5479;52.046;6.314;2023-03-12T00:07:22;7.70;;;4.87;;
10851;SDS011;5479;52.046;6.314;2023-03-12T00:09:50;8.73;;;5.27;;
10851;SDS011;5479;52.046;6.314;2023-03-12T00:12:19;7.70;;;5.20;;
10851;SDS011;5479;52.046;6.314;2023-03-12T00:14:47;7.60;;;5.33;;
10851;SDS011;5479;52.046;6.314;2023-03-12T00:17:14;7.00;;;5.20;;
10851;SDS011;5479;52.046;6.314;2023-03-12T00:19:43;8.50;;;5.60;;
10851;SDS011;5479;52.046;6.314;2023-03-12T00:22:11;8.77;;;5.10;;
10851;SDS011;5479;52.046;6.314;2023-03-12T00:24:42;7.33;;;4.63;;
10851;SDS011;5479;52.046;6.314;2023-03-12T00:27:09;8.17;;;5.30;;
10851;SDS011;5479;52.046;6.314;2023-03-12T00:29:39;7.80;;;4.80;;
10851;SDS011;5479;52.046;6.314;2023-03-12T00:32:07;7.63;;;4.50;;
10851;SDS011;5479;52.046;6.314;2023-03-12T00:34:35;7.93;;;4.60;;
10851;SDS011;5479;52.046;6.314;2023-03-12T00:37:03;7.13;;;4.30;;
10851;SDS011;5479;52.046;6.314;2023-03-12T00:39:31;5.97;;;4.07;;
10851;SDS011;5479;52.046;6.314;2023-03-12T00:42:00;5.93;;;3.93;;
10851;SDS011;5479;52.046;6.314;2023-03-12T00:44:28;6.40;;;3.90;;
10851;SDS011;5479;52.046;6.314;2023-03-12T00:46:57;5.87;;;4.13;;
10851;SDS011;5479;52.046;6.314;2023-03-12T00:49:25;4.93;;;3.53;;
10851;SDS011;5479;52.046;6.314;2023-03-12T00:51:53;5.97;;;4.00;;
10851;SDS011;5479;52.046;6.314;2023-03-12T00:54:21;7.50;;;4.43;;
10851;SDS011;5479;52.046;6.314;2023-03-12T00:56:52;6.20;;;3.80;;
10851;SDS011;5479;52.046;6.314;2023-03-12T00:59:21;7.47;;;4.00;;
10851;SDS011;5479;52.046;6.314;2023-03-12T01:01:49;5.73;;;4.00;;
10851;SDS011;5479;52.046;6.314;2023-03-12T01:04:18;7.13;;;4.20;;
10851;SDS011;5479;52.046;6.314;2023-03-12T01:06:46;6.97;;;4.23;;
10851;SDS011;5479;52.046;6.314;2023-03-12T01:09:14;5.80;;;3.90;;
10851;SDS011;5479;52.046;6.314;2023-03-12T01:11:43;5.83;;;3.90;;
10851;SDS011;5479;52.046;6.314;2023-03-12T01:14:11;6.90;;;4.17;;
10851;SDS011;5479;52.046;6.314;2023-03-12T01:16:39;6.80;;;4.27;;
10851;SDS011;5479;52.046;6.314;2023-03-12T01:19:07;7.17;;;4.00;;
10851;SDS011;5479;52.046;6.314;2023-03-12T01:21:37;7.50;;;3.70;;
10851;SDS011;5479;52.046;6.314;2023-03-12T01:24:05;6.80;;;3.77;;
10851;SDS011;5479;52.046;6.314;2023-03-12T01:26:34;6.90;;;3.80;;
10851;SDS011;5479;52.046;6.314;2023-03-12T01:29:02;7.23;;;3.30;;
10851;SDS011;5479;52.046;6.314;2023-03-12T01:31:30;5.90;;;3.40;;
10851;SDS011;5479;52.046;6.314;2023-03-12T01:33:58;5.00;;;3.20;;
10851;SDS011;5479;52.046;6.314;2023-03-12T01:36:26;6.93;;;3.33;;
10851;SDS011;5479;52.046;6.314;2023-03-12T01:38:57;6.80;;;3.60;;
10851;SDS011;5479;52.046;6.314;2023-03-12T01:41:26;6.60;;;3.53;;
10851;SDS011;5479;52.046;6.314;2023-03-12T01:43:59;6.03;;;3.57;;
10851;SDS011;5479;52.046;6.314;2023-03-12T01:46:30;6.50;;;3.60;;
10851;SDS011;5479;52.046;6.314;2023-03-12T01:49:01;6.67;;;3.70;;
10851;SDS011;5479;52.046;6.314;2023-03-12T01:51:34;7.50;;;4.20;;
10851;SDS011;5479;52.046;6.314;2023-03-12T01:54:08;5.23;;;3.00;;
10851;SDS011;5479;52.046;6.314;2023-03-12T01:56:40;5.30;;;3.13;;
10851;SDS011;5479;52.046;6.314;2023-03-12T01:59:11;6.97;;;3.20;;
10851;SDS011;5479;52.046;6.314;2023-03-12T02:01:42;6.43;;;3.23;;
10851;SDS011;5479;52.046;6.314;2023-03-12T02:04:10;7.33;;;3.30;;
10851;SDS011;5479;52.046;6.314;2023-03-12T02:06:41;6.33;;;3.53;;
10851;SDS011;5479;52.046;6.314;2023-03-12T02:09:16;6.50;;;3.60;;
10851;SDS011;5479;52.046;6.314;2023-03-12T02:11:46;5.33;;;3.20;;
10851;SDS011;5479;52.046;6.314;2023-03-12T02:14:15;5.70;;;3.20;;
10851;SDS011;5479;52.046;6.314;2023-03-12T02:16:43;6.43;;;3.77;;
10851;SDS011;5479;52.046;6.314;2023-03-12T02:19:14;6.87;;;3.60;;
10851;SDS011;5479;52.046;6.314;2023-03-12T02:21:45;8.20;;;4.03;;
10851;SDS011;5479;52.046;6.314;2023-03-12T02:24:16;5.63;;;3.43;;
10851;SDS011;5479;52.046;6.314;2023-03-12T02:26:52;6.80;;;4.03;;
10851;SDS011;5479;52.046;6.314;2023-03-12T02:29:21;9.00;;;3.73;;
10851;SDS011;5479;52.046;6.314;2023-03-12T02:31:52;5.80;;;3.53;;
10851;SDS011;5479;52.046;6.314;2023-03-12T02:34:22;7.27;;;3.93;;
10851;SDS011;5479;52.046;6.314;2023-03-12T02:36:50;7.10;;;3.70;;
10851;SDS011;5479;52.046;6.314;2023-03-12T02:39:18;7.57;;;3.70;;
10851;SDS011;5479;52.046;6.314;2023-03-12T02:41:47;8.23;;;3.47;;
10851;SDS011;5479;52.046;6.314;2023-03-12T02:44:20;8.50;;;4.00;;
10851;SDS011;5479;52.046;6.314;2023-03-12T02:46:51;8.47;;;3.70;;
10851;SDS011;5479;52.046;6.314;2023-03-12T02:49:21;6.87;;;4.40;;
10851;SDS011;5479;52.046;6.314;2023-03-12T02:51:51;7.63;;;4.60;;
10851;SDS011;5479;52.046;6.314;2023-03-12T02:54:20;7.03;;;3.73;;
10851;SDS011;5479;52.046;6.314;2023-03-12T02:56:49;5.40;;;3.20;;
10851;SDS011;5479;52.046;6.314;2023-03-12T02:59:17;6.90;;;3.20;;
10851;SDS011;5479;52.046;6.314;2023-03-12T03:01:51;5.17;;;3.03;;
10851;SDS011;5479;52.046;6.314;2023-03-12T03:04:20;8.07;;;3.80;;
10851;SDS011;5479;52.046;6.314;2023-03-12T03:06:49;7.13;;;4.27;;
10851;SDS011;5479;52.046;6.314;2023-03-12T03:09:17;6.17;;;3.60;;
10851;SDS011;5479;52.046;6.314;2023-03-12T03:11:47;6.70;;;3.60;;
10851;SDS011;5479;52.046;6.314;2023-03-12T03:14:16;5.57;;;3.40;;
10851;SDS011;5479;52.046;6.314;2023-03-12T03:16:44;6.07;;;3.40;;
10851;SDS011;5479;52.046;6.314;2023-03-12T03:19:13;7.43;;;3.70;;
10851;SDS011;5479;52.046;6.314;2023-03-12T03:21:41;5.60;;;3.27;;
10851;SDS011;5479;52.046;6.314;2023-03-12T03:24:10;7.87;;;3.30;;
10851;SDS011;5479;52.046;6.314;2023-03-12T03:26:38;6.47;;;3.07;;
10851;SDS011;5479;52.046;6.314;2023-03-12T03:29:06;5.50;;;2.97;;
10851;SDS011;5479;52.046;6.314;2023-03-12T03:31:34;6.37;;;3.60;;
10851;SDS011;5479;52.046;6.314;2023-03-12T03:34:02;6.83;;;3.50;;
10851;SDS011;5479;52.046;6.314;2023-03-12T03:36:31;5.83;;;3.10;;
10851;SDS011;5479;52.046;6.314;2023-03-12T03:38:59;5.73;;;3.50;;
10851;SDS011;5479;52.046;6.314;2023-03-12T03:41:27;7.30;;;3.30;;
10851;SDS011;5479;52.046;6.314;2023-03-12T03:43:55;5.50;;;3.43;;
10851;SDS011;5479;52.046;6.314;2023-03-12T03:46:24;6.50;;;3.63;;
10851;SDS011;5479;52.046;6.314;2023-03-12T03:48:52;5.53;;;3.47;;
10851;SDS011;5479;52.046;6.314;2023-03-12T03:51:20;7.23;;;3.67;;
10851;SDS011;5479;52.046;6.314;2023-03-12T03:53:49;5.23;;;3.33;;
10851;SDS011;5479;52.046;6.314;2023-03-12T03:56:17;7.27;;;3.53;;
10851;SDS011;5479;52.046;6.314;2023-03-12T03:58:45;7.23;;;4.00;;
10851;SDS011;5479;52.046;6.314;2023-03-12T04:01:14;7.47;;;3.67;;
10851;SDS011;5479;52.046;6.314;2023-03-12T04:03:42;7.97;;;4.20;;
10851;SDS011;5479;52.046;6.314;2023-03-12T04:06:10;8.43;;;3.83;;
10851;SDS011;5479;52.046;6.314;2023-03-12T04:08:38;8.00;;;4.10;;
10851;SDS011;5479;52.046;6.314;2023-03-12T04:11:08;6.43;;;4.07;;
10851;SDS011;5479;52.046;6.314;2023-03-12T04:13:38;8.03;;;4.03;;
10851;SDS011;5479;52.046;6.314;2023-03-12T04:16:06;6.57;;;4.00;;
10851;SDS011;5479;52.046;6.314;2023-03-12T04:18:34;6.80;;;4.40;;
10851;SDS011;5479;52.046;6.314;2023-03-12T04:21:02;7.00;;;4.40;;
10851;SDS011;5479;52.046;6.314;2023-03-12T04:23:31;9.17;;;4.50;;
10851;SDS011;5479;52.046;6.314;2023-03-12T04:25:59;8.67;;;4.80;;
10851;SDS011;5479;52.046;6.314;2023-03-12T04:28:28;7.27;;;4.47;;
10851;SDS011;5479;52.046;6.314;2023-03-12T04:30:57;8.17;;;4.70;;
10851;SDS011;5479;52.046;6.314;2023-03-12T04:33:26;6.03;;;3.93;;
10851;SDS011;5479;52.046;6.314;2023-03-12T04:35:55;7.60;;;4.57;;
10851;SDS011;5479;52.046;6.314;2023-03-12T04:38:23;6.77;;;4.13;;
10851;SDS011;5479;52.046;6.314;2023-03-12T04:40:56;8.47;;;4.33;;
10851;SDS011;5479;52.046;6.314;2023-03-12T04:43:25;7.43;;;4.63;;
10851;SDS011;5479;52.046;6.314;2023-03-12T04:45:55;7.63;;;4.60;;
10851;SDS011;5479;52.046;6.314;2023-03-12T04:48:24;6.90;;;4.30;;
10851;SDS011;5479;52.046;6.314;2023-03-12T04:50:52;8.03;;;4.80;;
10851;SDS011;5479;52.046;6.314;2023-03-12T04:53:20;6.67;;;4.40;;
10851;SDS011;5479;52.046;6.314;2023-03-12T04:55:49;8.80;;;4.67;;
10851;SDS011;5479;52.046;6.314;2023-03-12T04:58:17;7.13;;;4.40;;
10851;SDS011;5479;52.046;6.314;2023-03-12T05:00:47;8.60;;;4.30;;
10851;SDS011;5479;52.046;6.314;2023-03-12T05:03:17;6.47;;;4.00;;
10851;SDS011;5479;52.046;6.314;2023-03-12T05:05:45;10.30;;;5.00;;
10851;SDS011;5479;52.046;6.314;2023-03-12T05:08:13;8.17;;;4.40;;
10851;SDS011;5479;52.046;6.314;2023-03-12T05:10:41;7.50;;;4.80;;
10851;SDS011;5479;52.046;6.314;2023-03-12T05:13:12;8.37;;;5.00;;
10851;SDS011;5479;52.046;6.314;2023-03-12T05:15:41;8.30;;;5.13;;
10851;SDS011;5479;52.046;6.314;2023-03-12T05:18:10;7.70;;;5.03;;
10851;SDS011;5479;52.046;6.314;2023-03-12T05:20:39;7.57;;;4.53;;
10851;SDS011;5479;52.046;6.314;2023-03-12T05:23:07;7.93;;;4.53;;
10851;SDS011;5479;52.046;6.314;2023-03-12T05:25:37;8.50;;;4.50;;
10851;SDS011;5479;52.046;6.314;2023-03-12T05:28:06;10.10;;;4.30;;
10851;SDS011;5479;52.046;6.314;2023-03-12T05:30:34;7.07;;;4.23;;
10851;SDS011;5479;52.046;6.314;2023-03-12T05:33:02;9.80;;;4.60;;
10851;SDS011;5479;52.046;6.314;2023-03-12T05:35:30;9.57;;;4.77;;
10851;SDS011;5479;52.046;6.314;2023-03-12T05:38:00;8.77;;;4.50;;
10851;SDS011;5479;52.046;6.314;2023-03-12T05:40:29;7.03;;;4.00;;
10851;SDS011;5479;52.046;6.314;2023-03-12T05:42:57;7.47;;;4.30;;
10851;SDS011;5479;52.046;6.314;2023-03-12T05:45:25;7.90;;;4.10;;
10851;SDS011;5479;52.046;6.314;2023-03-12T05:47:53;7.60;;;4.30;;
10851;SDS011;5479;52.046;6.314;2023-03-12T05:50:21;8.13;;;4.37;;
10851;SDS011;5479;52.046;6.314;2023-03-12T05:52:49;6.63;;;4.50;;
10851;SDS011;5479;52.046;6.314;2023-03-12T05:55:19;7.13;;;4.33;;
10851;SDS011;5479;52.046;6.314;2023-03-12T05:57:47;10.90;;;4.17;;
10851;SDS011;5479;52.046;6.314;2023-03-12T06:00:15;5.50;;;3.43;;
10851;SDS011;5479;52.046;6.314;2023-03-12T06:02:44;8.57;;;3.80;;
10851;SDS011;5479;52.046;6.314;2023-03-12T06:05:12;6.23;;;3.80;;
10851;SDS011;5479;52.046;6.314;2023-03-12T06:07:40;6.40;;;3.77;;
10851;SDS011;5479;52.046;6.314;2023-03-12T06:10:08;6.77;;;4.13;;
10851;SDS011;5479;52.046;6.314;2023-03-12T06:12:38;9.03;;;3.90;;
10851;SDS011;5479;52.046;6.314;2023-03-12T06:15:07;8.13;;;4.10;;
10851;SDS011;5479;52.046;6.314;2023-03-12T06:17:35;7.83;;;4.10;;
10851;SDS011;5479;52.046;6.314;2023-03-12T06:20:04;7.27;;;3.97;;
10851;SDS011;5479;52.046;6.314;2023-03-12T06:22:33;7.17;;;3.70;;
10851;SDS011;5479;52.046;6.314;2023-03-12T06:25:01;7.80;;;3.70;;
10851;SDS011;5479;52.046;6.314;2023-03-12T06:27:29;7.10;;;4.00;;
10851;SDS011;5479;52.046;6.314;2023-03-12T06:29:58;6.10;;;3.60;;
10851;SDS011;5479;52.046;6.314;2023-03-12T06:32:26;7.07;;;3.60;;
10851;SDS011;5479;52.046;6.314;2023-03-12T06:34:54;6.47;;;3.70;;
10851;SDS011;5479;52.046;6.314;2023-03-12T06:37:22;5.70;;;3.53;;
10851;SDS011;5479;52.046;6.314;2023-03-12T06:39:50;8.77;;;4.13;;
10851;SDS011;5479;52.046;6.314;2023-03-12T06:42:18;6.40;;;3.80;;
10851;SDS011;5479;52.046;6.314;2023-03-12T06:44:47;5.57;;;3.57;;
10851;SDS011;5479;52.046;6.314;2023-03-12T06:47:17;7.17;;;3.43;;
10851;SDS011;5479;52.046;6.314;2023-03-12T06:49:45;7.87;;;3.70;;
10851;SDS011;5479;52.046;6.314;2023-03-12T06:52:13;5.67;;;3.47;;
10851;SDS011;5479;52.046;6.314;2023-03-12T06:54:41;7.37;;;3.70;;
10851;SDS011;5479;52.046;6.314;2023-03-12T06:57:09;7.07;;;3.70;;
10851;SDS011;5479;52.046;6.314;2023-03-12T06:59:37;6.73;;;3.70;;
10851;SDS011;5479;52.046;6.314;2023-03-12T07:02:05;5.77;;;3.57;;
10851;SDS011;5479;52.046;6.314;2023-03-12T07:04:34;7.47;;;3.97;;
10851;SDS011;5479;52.046;6.314;2023-03-12T07:07:02;8.10;;;4.10;;
10851;SDS011;5479;52.046;6.314;2023-03-12T07:09:30;5.73;;;3.50;;
10851;SDS011;5479;52.046;6.314;2023-03-12T07:11:58;5.77;;;3.20;;
10851;SDS011;5479;52.046;6.314;2023-03-12T07:14:26;5.67;;;3.70;;
10851;SDS011;5479;52.046;6.314;2023-03-12T07:16:54;8.40;;;3.90;;
10851;SDS011;5479;52.046;6.314;2023-03-12T07:19:23;8.47;;;4.00;;
10851;SDS011;5479;52.046;6.314;2023-03-12T07:21:52;8.23;;;4.00;;
10851;SDS011;5479;52.046;6.314;2023-03-12T07:24:20;8.30;;;4.07;;
10851;SDS011;5479;52.046;6.314;2023-03-12T07:26:48;6.70;;;3.80;;
10851;SDS011;5479;52.046;6.314;2023-03-12T07:29:16;5.50;;;3.83;;
10851;SDS011;5479;52.046;6.314;2023-03-12T07:31:44;7.10;;;4.03;;
10851;SDS011;5479;52.046;6.314;2023-03-12T07:34:12;10.60;;;4.17;;
10851;SDS011;5479;52.046;6.314;2023-03-12T07:36:40;6.97;;;3.80;;
10851;SDS011;5479;52.046;6.314;2023-03-12T07:39:10;6.50;;;3.90;;
10851;SDS011;5479;52.046;6.314;2023-03-12T07:41:37;6.03;;;3.87;;
10851;SDS011;5479;52.046;6.314;2023-03-12T07:44:05;6.07;;;3.93;;
10851;SDS011;5479;52.046;6.314;2023-03-12T07:46:34;10.10;;;4.20;;
10851;SDS011;5479;52.046;6.314;2023-03-12T07:49:02;6.93;;;3.90;;
10851;SDS011;5479;52.046;6.314;2023-03-12T07:51:30;5.80;;;4.10;;
10851;SDS011;5479;52.046;6.314;2023-03-12T07:53:58;5.67;;;3.70;;
10851;SDS011;5479;52.046;6.314;2023-03-12T07:56:28;6.17;;;4.47;;
10851;SDS011;5479;52.046;6.314;2023-03-12T07:58:55;6.67;;;4.20;;
10851;SDS011;5479;52.046;6.314;2023-03-12T08:01:23;7.33;;;4.57;;
10851;SDS011;5479;52.046;6.314;2023-03-12T08:03:57;7.60;;;4.20;;
10851;SDS011;5479;52.046;6.314;2023-03-12T08:06:25;7.10;;;4.30;;
10851;SDS011;5479;52.046;6.314;2023-03-12T08:08:53;8.53;;;4.63;;
10851;SDS011;5479;52.046;6.314;2023-03-12T08:11:21;6.23;;;4.30;;
10851;SDS011;5479;52.046;6.314;2023-03-12T08:13:50;6.93;;;4.50;;
10851;SDS011;5479;52.046;6.314;2023-03-12T08:16:18;8.87;;;4.73;;
10851;SDS011;5479;52.046;6.314;2023-03-12T08:18:46;8.50;;;4.70;;
10851;SDS011;5479;52.046;6.314;2023-03-12T08:21:15;6.90;;;4.03;;
10851;SDS011;5479;52.046;6.314;2023-03-12T08:23:43;7.23;;;4.40;;
10851;SDS011;5479;52.046;6.314;2023-03-12T08:26:11;9.63;;;5.00;;
10851;SDS011;5479;52.046;6.314;2023-03-12T08:28:39;6.63;;;4.43;;
10851;SDS011;5479;52.046;6.314;2023-03-12T08:31:08;7.30;;;4.23;;
10851;SDS011;5479;52.046;6.314;2023-03-12T08:33:36;7.60;;;4.90;;
10851;SDS011;5479;52.046;6.314;2023-03-12T08:36:08;6.50;;;4.20;;
10851;SDS011;5479;52.046;6.314;2023-03-12T08:38:36;7.37;;;4.57;;
10851;SDS011;5479;52.046;6.314;2023-03-12T08:41:04;8.70;;;5.00;;
10851;SDS011;5479;52.046;6.314;2023-03-12T08:43:33;7.83;;;4.90;;
10851;SDS011;5479;52.046;6.314;2023-03-12T08:46:01;7.70;;;5.43;;
10851;SDS011;5479;52.046;6.314;2023-03-12T08:48:31;10.33;;;5.50;;
10851;SDS011;5479;52.046;6.314;2023-03-12T08:51:00;9.17;;;5.17;;
10851;SDS011;5479;52.046;6.314;2023-03-12T08:53:29;10.30;;;5.83;;
10851;SDS011;5479;52.046;6.314;2023-03-12T08:55:58;9.23;;;6.10;;
10851;SDS011;5479;52.046;6.314;2023-03-12T08:58:28;10.40;;;6.30;;
10851;SDS011;5479;52.046;6.314;2023-03-12T09:00:56;10.13;;;6.60;;
10851;SDS011;5479;52.046;6.314;2023-03-12T09:03:24;13.00;;;6.30;;
10851;SDS011;5479;52.046;6.314;2023-03-12T09:06:02;9.67;;;6.57;;
10851;SDS011;5479;52.046;6.314;2023-03-12T09:08:32;10.13;;;6.83;;
10851;SDS011;5479;52.046;6.314;2023-03-12T09:11:01;11.13;;;6.60;;
10851;SDS011;5479;52.046;6.314;2023-03-12T09:13:29;11.40;;;6.67;;
10851;SDS011;5479;52.046;6.314;2023-03-12T09:15:57;11.40;;;7.37;;
10851;SDS011;5479;52.046;6.314;2023-03-12T09:18:26;12.57;;;7.50;;
10851;SDS011;5479;52.046;6.314;2023-03-12T09:20:55;13.90;;;7.43;;
10851;SDS011;5479;52.046;6.314;2023-03-12T09:23:26;14.40;;;7.57;;
10851;SDS011;5479;52.046;6.314;2023-03-12T09:25:54;10.13;;;7.50;;
10851;SDS011;5479;52.046;6.314;2023-03-12T09:28:22;11.93;;;7.57;;
10851;SDS011;5479;52.046;6.314;2023-03-12T09:30:50;10.40;;;7.60;;
10851;SDS011;5479;52.046;6.314;2023-03-12T09:33:18;9.60;;;7.10;;
10851;SDS011;5479;52.046;6.314;2023-03-12T09:35:54;12.60;;;7.50;;
10851;SDS011;5479;52.046;6.314;2023-03-12T09:38:23;12.17;;;7.70;;
10851;SDS011;5479;52.046;6.314;2023-03-12T09:40:53;8.63;;;6.77;;
10851;SDS011;5479;52.046;6.314;2023-03-12T09:43:23;14.30;;;6.93;;
10851;SDS011;5479;52.046;6.314;2023-03-12T09:45:55;12.00;;;7.53;;
10851;SDS011;5479;52.046;6.314;2023-03-12T09:48:25;9.43;;;7.17;;
10851;SDS011;5479;52.046;6.314;2023-03-12T09:50:57;9.27;;;7.03;;
10851;SDS011;5479;52.046;6.314;2023-03-12T09:53:30;8.93;;;6.67;;
10851;SDS011;5479;52.046;6.314;2023-03-12T09:56:04;12.03;;;6.80;;
10851;SDS011;5479;52.046;6.314;2023-03-12T09:58:35;7.87;;;5.97;;
10851;SDS011;5479;52.046;6.314;2023-03-12T10:01:06;9.50;;;6.83;;
10851;SDS011;5479;52.046;6.314;2023-03-12T10:06:40;10.63;;;7.13;;
10851;SDS011;5479;52.046;6.314;2023-03-12T10:09:17;11.40;;;6.60;;
10851;SDS011;5479;52.046;6.314;2023-03-12T10:11:58;8.40;;;6.43;;
10851;SDS011;5479;52.046;6.314;2023-03-12T10:14:38;10.53;;;7.03;;
10851;SDS011;5479;52.046;6.314;2023-03-12T10:17:18;9.80;;;7.07;;
10851;SDS011;5479;52.046;6.314;2023-03-12T10:20:00;11.33;;;7.63;;
10851;SDS011;5479;52.046;6.314;2023-03-12T10:22:47;11.20;;;7.83;;
10851;SDS011;5479;52.046;6.314;2023-03-12T10:25:20;10.27;;;8.00;;
10851;SDS011;5479;52.046;6.314;2023-03-12T10:27:56;10.63;;;7.90;;
10851;SDS011;5479;52.046;6.314;2023-03-12T10:30:31;9.03;;;7.90;;
10851;SDS011;5479;52.046;6.314;2023-03-12T10:33:00;10.70;;;7.97;;
10851;SDS011;5479;52.046;6.314;2023-03-12T10:35:30;11.30;;;8.33;;
10851;SDS011;5479;52.046;6.314;2023-03-12T10:37:58;11.73;;;9.10;;
10851;SDS011;5479;52.046;6.314;2023-03-12T10:40:28;12.47;;;9.80;;
10851;SDS011;5479;52.046;6.314;2023-03-12T10:43:00;13.03;;;9.37;;
10851;SDS011;5479;52.046;6.314;2023-03-12T10:45:30;12.37;;;10.10;;
10851;SDS011;5479;52.046;6.314;2023-03-12T10:48:04;12.33;;;9.73;;
10851;SDS011;5479;52.046;6.314;2023-03-12T10:50:34;13.47;;;9.73;;
10851;SDS011;5479;52.046;6.314;2023-03-12T10:53:20;12.67;;;9.97;;
10851;SDS011;5479;52.046;6.314;2023-03-12T10:55:59;14.10;;;10.13;;
10851;SDS011;5479;52.046;6.314;2023-03-12T10:58:32;14.33;;;10.17;;
10851;SDS011;5479;52.046;6.314;2023-03-12T11:01:02;13.27;;;9.93;;
10851;SDS011;5479;52.046;6.314;2023-03-12T11:03:32;14.63;;;10.60;;
10851;SDS011;5479;52.046;6.314;2023-03-12T11:06:01;13.20;;;10.20;;
10851;SDS011;5479;52.046;6.314;2023-03-12T11:08:30;13.70;;;10.43;;
10851;SDS011;5479;52.046;6.314;2023-03-12T11:11:00;13.83;;;10.93;;
10851;SDS011;5479;52.046;6.314;2023-03-12T11:13:30;15.13;;;11.10;;
10851;SDS011;5479;52.046;6.314;2023-03-12T11:16:00;14.77;;;11.13;;
10851;SDS011;5479;52.046;6.314;2023-03-12T11:18:52;15.50;;;11.13;;
10851;SDS011;5479;52.046;6.314;2023-03-12T11:21:22;15.87;;;11.90;;
10851;SDS011;5479;52.046;6.314;2023-03-12T11:24:04;14.03;;;11.10;;
10851;SDS011;5479;52.046;6.314;2023-03-12T11:26:36;14.30;;;11.47;;
10851;SDS011;5479;52.046;6.314;2023-03-12T11:29:15;15.13;;;11.33;;
10851;SDS011;5479;52.046;6.314;2023-03-12T11:31:50;14.67;;;11.83;;
10851;SDS011;5479;52.046;6.314;2023-03-12T11:34:26;15.83;;;12.03;;
10851;SDS011;5479;52.046;6.314;2023-03-12T11:36:59;15.03;;;11.87;;
10851;SDS011;5479;52.046;6.314;2023-03-12T11:39:37;16.20;;;12.27;;
10851;SDS011;5479;52.046;6.314;2023-03-12T11:42:17;15.17;;;12.40;;
10851;SDS011;5479;52.046;6.314;2023-03-12T11:44:55;16.17;;;12.17;;
10851;SDS011;5479;52.046;6.314;2023-03-12T11:47:38;15.93;;;12.33;;
10851;SDS011;5479;52.046;6.314;2023-03-12T11:50:23;16.13;;;12.03;;
10851;SDS011;5479;52.046;6.314;2023-03-12T11:53:04;14.90;;;12.57;;
10851;SDS011;5479;52.046;6.314;2023-03-12T11:55:49;15.97;;;12.73;;
10851;SDS011;5479;52.046;6.314;2023-03-12T11:58:28;18.70;;;13.27;;
10851;SDS011;5479;52.046;6.314;2023-03-12T12:01:08;17.10;;;12.20;;
10851;SDS011;5479;52.046;6.314;2023-03-12T12:06:52;17.90;;;13.23;;
10851;SDS011;5479;52.046;6.314;2023-03-12T12:09:34;17.97;;;12.83;;
10851;SDS011;5479;52.046;6.314;2023-03-12T12:12:18;18.43;;;12.97;;
10851;SDS011;5479;52.046;6.314;2023-03-12T12:14:59;19.13;;;13.30;;
10851;SDS011;5479;52.046;6.314;2023-03-12T12:17:39;20.27;;;13.30;;
10851;SDS011;5479;52.046;6.314;2023-03-12T12:20:24;24.53;;;13.83;;
10851;SDS011;5479;52.046;6.314;2023-03-12T12:23:02;20.27;;;12.93;;
10851;SDS011;5479;52.046;6.314;2023-03-12T12:28:44;16.17;;;12.00;;
10851;SDS011;5479;52.046;6.314;2023-03-12T12:31:37;19.17;;;12.17;;
10851;SDS011;5479;52.046;6.314;2023-03-12T12:37:24;19.60;;;11.17;;
10851;SDS011;5479;52.046;6.314;2023-03-12T12:40:04;19.40;;;11.20;;
10851;SDS011;5479;52.046;6.314;2023-03-12T12:42:45;17.17;;;10.70;;
10851;SDS011;5479;52.046;6.314;2023-03-12T12:45:19;17.23;;;9.93;;
10851;SDS011;5479;52.046;6.314;2023-03-12T12:47:52;13.53;;;8.47;;
10851;SDS011;5479;52.046;6.314;2023-03-12T12:50:26;13.97;;;8.67;;
10851;SDS011;5479;52.046;6.314;2023-03-12T12:52:59;16.07;;;8.77;;
10851;SDS011;5479;52.046;6.314;2023-03-12T12:55:32;13.90;;;8.47;;
10851;SDS011;5479;52.046;6.314;2023-03-12T12:58:09;16.00;;;8.27;;
10851;SDS011;5479;52.046;6.314;2023-03-12T13:00:42;14.83;;;7.77;;
10851;SDS011;5479;52.046;6.314;2023-03-12T13:03:15;14.97;;;7.20;;
10851;SDS011;5479;52.046;6.314;2023-03-12T13:05:52;14.37;;;7.67;;
10851;SDS011;5479;52.046;6.314;2023-03-12T13:08:32;18.20;;;7.43;;
10851;SDS011;5479;52.046;6.314;2023-03-12T13:11:04;14.33;;;6.73;;
10851;SDS011;5479;52.046;6.314;2023-03-12T13:13:33;15.00;;;6.70;;
10851;SDS011;5479;52.046;6.314;2023-03-12T13:16:16;18.03;;;7.00;;
10851;SDS011;5479;52.046;6.314;2023-03-12T13:18:56;20.23;;;7.40;;
10851;SDS011;5479;52.046;6.314;2023-03-12T13:21:30;14.87;;;6.33;;
10851;SDS011;5479;52.046;6.314;2023-03-12T13:24:10;19.77;;;7.40;;
10851;SDS011;5479;52.046;6.314;2023-03-12T13:26:48;20.07;;;6.80;;
10851;SDS011;5479;52.046;6.314;2023-03-12T13:29:21;20.63;;;6.63;;
10851;SDS011;5479;52.046;6.314;2023-03-12T13:32:02;16.13;;;5.73;;
10851;SDS011;5479;52.046;6.314;2023-03-12T13:34:40;18.70;;;6.50;;
10851;SDS011;5479;52.046;6.314;2023-03-12T13:37:18;16.67;;;6.30;;
10851;SDS011;5479;52.046;6.314;2023-03-12T13:39:58;16.60;;;5.63;;
10851;SDS011;5479;52.046;6.314;2023-03-12T13:42:37;12.53;;;5.33;;
10851;SDS011;5479;52.046;6.314;2023-03-12T13:45:20;18.00;;;6.10;;
10851;SDS011;5479;52.046;6.314;2023-03-12T13:47:56;17.00;;;6.30;;
10851;SDS011;5479;52.046;6.314;2023-03-12T13:50:27;15.43;;;5.87;;
10851;SDS011;5479;52.046;6.314;2023-03-12T13:53:01;20.10;;;6.87;;
10851;SDS011;5479;52.046;6.314;2023-03-12T13:55:32;17.23;;;6.30;;
10851;SDS011;5479;52.046;6.314;2023-03-12T13:58:05;17.60;;;5.97;;
10851;SDS011;5479;52.046;6.314;2023-03-12T14:00:36;18.63;;;5.90;;
10851;SDS011;5479;52.046;6.314;2023-03-12T14:03:10;17.70;;;6.27;;
10851;SDS011;5479;52.046;6.314;2023-03-12T14:05:43;17.47;;;5.73;;
10851;SDS011;5479;52.046;6.314;2023-03-12T14:11:35;17.53;;;6.10;;
10851;SDS011;5479;52.046;6.314;2023-03-12T14:17:12;20.73;;;5.93;;
10851;SDS011;5479;52.046;6.314;2023-03-12T14:19:44;23.93;;;6.77;;
10851;SDS011;5479;52.046;6.314;2023-03-12T14:22:14;24.07;;;6.77;;
10851;SDS011;5479;52.046;6.314;2023-03-12T14:24:50;22.20;;;5.70;;
10851;SDS011;5479;52.046;6.314;2023-03-12T14:27:23;22.33;;;5.87;;
10851;SDS011;5479;52.046;6.314;2023-03-12T14:29:54;20.50;;;6.20;;
10851;SDS011;5479;52.046;6.314;2023-03-12T14:32:26;22.67;;;6.40;;
10851;SDS011;5479;52.046;6.314;2023-03-12T14:34:56;20.27;;;6.37;;
10851;SDS011;5479;52.046;6.314;2023-03-12T14:37:35;24.40;;;6.00;;
10851;SDS011;5479;52.046;6.314;2023-03-12T14:40:11;16.73;;;5.90;;
10851;SDS011;5479;52.046;6.314;2023-03-12T14:42:48;21.23;;;6.53;;
10851;SDS011;5479;52.046;6.314;2023-03-12T14:45:17;19.00;;;5.70;;
10851;SDS011;5479;52.046;6.314;2023-03-12T14:47:46;17.77;;;5.53;;
10851;SDS011;5479;52.046;6.314;2023-03-12T14:50:19;21.60;;;5.57;;
10851;SDS011;5479;52.046;6.314;2023-03-12T14:52:49;20.27;;;5.97;;
10851;SDS011;5479;52.046;6.314;2023-03-12T14:55:20;19.73;;;5.60;;
10851;SDS011;5479;52.046;6.314;2023-03-12T14:58:01;20.03;;;5.23;;
10851;SDS011;5479;52.046;6.314;2023-03-12T15:00:30;20.17;;;5.10;;
10851;SDS011;5479;52.046;6.314;2023-03-12T15:02:58;17.37;;;5.33;;
10851;SDS011;5479;52.046;6.314;2023-03-12T15:05:31;20.37;;;5.03;;
10851;SDS011;5479;52.046;6.314;2023-03-12T15:08:01;21.70;;;6.03;;
10851;SDS011;5479;52.046;6.314;2023-03-12T15:10:32;18.23;;;5.40;;
10851;SDS011;5479;52.046;6.314;2023-03-12T15:13:00;16.77;;;4.87;;
10851;SDS011;5479;52.046;6.314;2023-03-12T15:15:35;19.97;;;5.37;;
10851;SDS011;5479;52.046;6.314;2023-03-12T15:18:07;14.20;;;4.70;;
10851;SDS011;5479;52.046;6.314;2023-03-12T15:20:40;21.77;;;5.30;;
10851;SDS011;5479;52.046;6.314;2023-03-12T15:23:08;18.67;;;5.03;;
10851;SDS011;5479;52.046;6.314;2023-03-12T15:25:40;19.67;;;5.83;;
10851;SDS011;5479;52.046;6.314;2023-03-12T15:28:23;14.73;;;4.63;;
10851;SDS011;5479;52.046;6.314;2023-03-12T15:31:06;16.80;;;4.47;;
10851;SDS011;5479;52.046;6.314;2023-03-12T15:33:37;20.27;;;5.20;;
10851;SDS011;5479;52.046;6.314;2023-03-12T15:36:15;18.37;;;5.03;;
10851;SDS011;5479;52.046;6.314;2023-03-12T15:38:49;15.17;;;4.40;;